createdAt,value
2023-02-27T00:00:44.855Z,3.82
2023-02-27T00:16:01.298Z,3.80
2023-02-27T00:31:05.184Z,3.63
2023-02-27T00:46:09.507Z,3.56
2023-02-27T01:01:12.736Z,3.62
2023-02-27T01:16:16.045Z,3.71
2023-02-27T01:31:19.293Z,3.68
2023-02-27T01:46:23.761Z,3.67
2023-02-27T02:01:28.518Z,3.70
2023-02-27T02:16:35.152Z,3.71
2023-02-27T02:31:47.703Z,3.65
2023-02-27T02:47:26.257Z,3.56
2023-02-27T03:02:35.992Z,3.54
2023-02-27T03:18:07.714Z,3.51
2023-02-27T03:33:22.242Z,3.50
2023-02-27T03:48:26.433Z,3.50
2023-02-27T04:03:37.825Z,3.54
2023-02-27T04:19:00.308Z,3.50
2023-02-27T04:34:15.702Z,3.45
2023-02-27T04:49:29.880Z,3.45
2023-02-27T05:04:37.460Z,3.46
2023-02-27T05:19:43.069Z,3.47
2023-02-27T05:34:52.210Z,3.45
2023-02-27T05:50:02.805Z,3.39
2023-02-27T06:05:07.025Z,3.42
2023-02-27T06:20:11.150Z,3.52
2023-02-27T06:35:14.396Z,3.43
2023-02-27T06:50:17.629Z,3.98
2023-02-27T07:05:20.756Z,5.48
2023-02-27T07:20:23.993Z,6.56
2023-02-27T07:35:28.393Z,6.45
2023-02-27T07:50:32.183Z,6.44
2023-02-27T08:05:36.167Z,6.58
2023-02-27T08:20:39.417Z,7.25
2023-02-27T08:35:43.235Z,7.86
2023-02-27T08:50:47.097Z,8.18
2023-02-27T09:05:50.448Z,8.64
2023-02-27T09:20:53.595Z,8.35
2023-02-27T09:35:57.041Z,8.07
2023-02-27T09:51:01.217Z,8.67
2023-02-27T10:06:10.533Z,9.42
2023-02-27T10:21:19.970Z,10.41
2023-02-27T10:36:33.632Z,9.30
2023-02-27T10:51:38.509Z,10.17
2023-02-27T11:06:42.895Z,10.99
2023-02-27T11:22:05.242Z,11.58
2023-02-27T11:37:33.064Z,11.70
2023-02-27T11:52:42.309Z,10.98
2023-02-27T12:07:54.398Z,11.52
2023-02-27T12:22:57.891Z,11.55
2023-02-27T12:38:02.825Z,12.38
2023-02-27T12:53:42.932Z,13.09
2023-02-27T13:08:51.840Z,14.01
2023-02-27T13:24:24.074Z,14.95
2023-02-27T13:39:39.063Z,14.17
2023-02-27T13:54:42.669Z,18.38
2023-02-27T14:09:49.346Z,20.74
2023-02-27T14:25:05.551Z,23.67
2023-02-27T14:40:36.948Z,19.87
2023-02-27T14:55:40.431Z,20.40
2023-02-27T15:10:45.010Z,25.59
2023-02-27T15:25:48.566Z,19.29
2023-02-27T15:40:52.776Z,15.71
2023-02-27T15:55:59.579Z,16.55
2023-02-27T16:11:05.058Z,13.66
2023-02-27T16:26:33.434Z,10.67
2023-02-27T16:41:38.016Z,8.69
2023-02-27T16:56:46.731Z,7.66
2023-02-27T17:11:53.031Z,7.03
2023-02-27T17:26:57.838Z,6.29
2023-02-27T17:42:01.766Z,5.80
2023-02-27T17:57:07.136Z,5.35
2023-02-27T18:12:11.975Z,5.05
2023-02-27T18:27:16.589Z,4.77
2023-02-27T18:42:20.543Z,4.49
2023-02-27T18:57:24.267Z,4.22
2023-02-27T19:12:28.047Z,3.92
2023-02-27T19:27:32.257Z,3.68
2023-02-27T19:42:36.377Z,3.40
2023-02-27T19:57:40.277Z,3.15
2023-02-27T20:12:44.530Z,3.07
2023-02-27T20:27:47.910Z,3.05
2023-02-27T20:42:51.438Z,2.95
2023-02-27T20:57:54.868Z,2.87
2023-02-27T21:12:58.462Z,2.81
2023-02-27T21:28:02.465Z,2.51
2023-02-27T21:43:05.907Z,2.21
2023-02-27T21:58:10.702Z,1.92
2023-02-27T22:13:15.657Z,1.55
2023-02-27T22:28:19.092Z,1.49
2023-02-27T22:43:23.120Z,1.39
2023-02-27T22:58:26.329Z,1.18
2023-02-27T23:13:29.583Z,1.03
2023-02-27T23:28:34.675Z,0.92
2023-02-27T23:43:37.816Z,0.43
2023-02-27T23:58:41.330Z,0.22
